Time;durP1;ratioP1;P1;durP2;ratioP2;P2;SDS_P1;SDS_P2;PMS_P1;PMS_P2;Temp;Humidity;BMP_temperature;BMP_pressure;BME280_temperature;BME280_humidity;BME280_pressure;Samples;Min_cycle;Max_cycle;Signal;HPM_P1;HPM_P2
2022/11/16 00:01:06;;;;;;;35.50;19.75;;;;;;;;;;5000961;28;20030;-75
2022/11/16 00:03:33;;;;;;;37.38;21.65;;;;;;;;;;5004584;28;20038;-75
2022/11/16 00:06:02;;;;;;;38.15;21.58;;;;;;;;;;4996871;28;20050;-74
2022/11/16 00:08:31;;;;;;;37.53;22.83;;;;;;;;;;4997964;28;20057;-73
2022/11/16 00:11:09;;;;;;;39.15;22.65;;;;;;;;;;5004238;28;20677;-73
2022/11/16 00:13:36;;;;;;;42.22;22.48;;;;;;;;;;5000579;28;20551;-73
2022/11/16 00:16:03;;;;;;;42.05;23.45;;;;;;;;;;5020637;28;20101;-73
2022/11/16 00:18:30;;;;;;;43.72;23.95;;;;;;;;;;4999105;28;20062;-74
2022/11/16 00:20:57;;;;;;;42.58;23.85;;;;;;;;;;5002093;28;20049;-74
2022/11/16 00:23:23;;;;;;;46.72;24.40;;;;;;;;;;5012764;28;20041;-74
2022/11/16 00:25:49;;;;;;;43.80;23.08;;;;;;;;;;4998768;28;20026;-76
2022/11/16 00:28:16;;;;;;;49.45;25.25;;;;;;;;;;4998366;28;20108;-74
2022/11/16 00:30:42;;;;;;;44.00;24.45;;;;;;;;;;5000804;28;20026;-74
2022/11/16 00:33:13;;;;;;;47.30;24.23;;;;;;;;;;5003175;28;20060;-75
2022/11/16 00:35:40;;;;;;;46.45;25.17;;;;;;;;;;5001084;28;20032;-74
2022/11/16 00:38:06;;;;;;;46.70;23.27;;;;;;;;;;4998055;28;20022;-74
2022/11/16 00:40:32;;;;;;;43.65;23.77;;;;;;;;;;4999196;28;20037;-75
2022/11/16 00:42:58;;;;;;;41.75;24.05;;;;;;;;;;4998818;28;20492;-73
2022/11/16 00:45:24;;;;;;;45.13;23.92;;;;;;;;;;4985607;28;20061;-74
2022/11/16 00:47:49;;;;;;;37.88;21.75;;;;;;;;;;5001746;28;20399;-75
2022/11/16 00:50:16;;;;;;;39.67;20.70;;;;;;;;;;5004776;28;20038;-73
2022/11/16 00:52:42;;;;;;;41.47;22.17;;;;;;;;;;5006549;28;20029;-74
2022/11/16 00:55:08;;;;;;;47.25;22.05;;;;;;;;;;5008628;28;20048;-76
2022/11/16 00:57:35;;;;;;;54.53;24.38;;;;;;;;;;5006923;28;20030;-72
2022/11/16 01:00:03;;;;;;;39.03;22.15;;;;;;;;;;5003891;28;20109;-72
2022/11/16 01:02:31;;;;;;;44.90;20.58;;;;;;;;;;5020372;28;20038;-74
2022/11/16 01:04:56;;;;;;;38.60;19.83;;;;;;;;;;5006040;28;20028;-75
2022/11/16 01:07:22;;;;;;;37.47;19.70;;;;;;;;;;5019688;28;20065;-75
2022/11/16 01:09:49;;;;;;;35.38;19.95;;;;;;;;;;5003311;28;20061;-75
2022/11/16 01:12:16;;;;;;;33.10;19.10;;;;;;;;;;4987649;28;20115;-76
2022/11/16 01:14:44;;;;;;;34.35;19.70;;;;;;;;;;5000786;28;20076;-74
2022/11/16 01:17:11;;;;;;;31.77;18.67;;;;;;;;;;5003031;28;20447;-74
2022/11/16 01:19:37;;;;;;;34.83;19.52;;;;;;;;;;5003216;28;20431;-75
2022/11/16 01:22:04;;;;;;;35.55;20.40;;;;;;;;;;5001541;28;20046;-75
2022/11/16 01:24:31;;;;;;;39.55;21.63;;;;;;;;;;5003464;28;20632;-73
2022/11/16 01:26:57;;;;;;;39.75;21.48;;;;;;;;;;5002165;28;20018;-75
2022/11/16 01:29:28;;;;;;;39.42;20.17;;;;;;;;;;5002737;28;20060;-75
2022/11/16 01:31:58;;;;;;;36.28;20.27;;;;;;;;;;5002041;28;20073;-77
2022/11/16 01:34:25;;;;;;;36.50;21.05;;;;;;;;;;5018497;28;20030;-75
2022/11/16 01:36:56;;;;;;;39.80;21.70;;;;;;;;;;5003365;28;20073;-75
2022/11/16 01:39:25;;;;;;;36.65;20.92;;;;;;;;;;4997344;28;20048;-74
2022/11/16 01:41:55;;;;;;;41.75;21.85;;;;;;;;;;5000805;28;20048;-74
2022/11/16 01:44:30;;;;;;;35.63;20.45;;;;;;;;;;4982861;28;20038;-74
2022/11/16 01:47:08;;;;;;;35.95;19.13;;;;;;;;;;5001943;28;20041;-75
2022/11/16 01:49:40;;;;;;;42.30;22.23;;;;;;;;;;5000306;28;20044;-75
2022/11/16 01:52:13;;;;;;;41.67;22.30;;;;;;;;;;5019743;28;20778;-75
2022/11/16 01:54:44;;;;;;;40.17;20.25;;;;;;;;;;4998300;28;20041;-74
2022/11/16 01:57:14;;;;;;;34.42;19.33;;;;;;;;;;4985229;28;20129;-76
2022/11/16 01:59:52;;;;;;;36.83;20.30;;;;;;;;;;5018495;28;20026;-76
2022/11/16 02:02:21;;;;;;;34.97;19.45;;;;;;;;;;5017809;28;20038;-75
2022/11/16 02:04:49;;;;;;;37.60;19.65;;;;;;;;;;4986101;28;20043;-74
2022/11/16 02:10:58;;;;;;;35.00;20.38;;;;;;;;;;5001198;28;20030;-76
2022/11/16 02:13:33;;;;;;;42.15;20.58;;;;;;;;;;5002320;28;20061;-76
2022/11/16 02:16:18;;;;;;;38.33;20.63;;;;;;;;;;5003839;28;20124;-76
2022/11/16 02:19:02;;;;;;;38.97;20.33;;;;;;;;;;4997843;28;20043;-76
2022/11/16 02:21:34;;;;;;;39.00;20.77;;;;;;;;;;5000466;28;20030;-76
2022/11/16 02:24:26;;;;;;;38.28;20.40;;;;;;;;;;5009458;28;20034;-76
2022/11/16 02:27:10;;;;;;;35.97;19.50;;;;;;;;;;4983466;28;20050;-75
2022/11/16 02:29:50;;;;;;;39.70;20.50;;;;;;;;;;5001051;28;20030;-77
2022/11/16 02:32:31;;;;;;;34.60;19.73;;;;;;;;;;5000169;28;20061;-75
2022/11/16 02:35:09;;;;;;;34.05;19.85;;;;;;;;;;5005110;28;20068;-75
2022/11/16 02:37:42;;;;;;;35.00;20.13;;;;;;;;;;5004617;28;20487;-75
2022/11/16 02:40:12;;;;;;;36.67;21.35;;;;;;;;;;5024539;28;20121;-75
2022/11/16 02:42:49;;;;;;;36.00;20.60;;;;;;;;;;5001220;28;20456;-75
2022/11/16 02:45:23;;;;;;;41.85;20.10;;;;;;;;;;5023444;28;20030;-76
2022/11/16 02:47:54;;;;;;;35.53;19.95;;;;;;;;;;5007521;28;20113;-75
2022/11/16 02:50:22;;;;;;;35.05;18.98;;;;;;;;;;5010827;28;20490;-75
2022/11/16 02:52:48;;;;;;;32.75;18.67;;;;;;;;;;5018459;28;20487;-75
2022/11/16 02:55:14;;;;;;;37.15;20.40;;;;;;;;;;5013234;28;20052;-75
2022/11/16 02:57:52;;;;;;;34.88;19.67;;;;;;;;;;5011680;28;20026;-76
2022/11/16 03:00:24;;;;;;;30.50;17.17;;;;;;;;;;4987453;28;20037;-75
2022/11/16 03:02:57;;;;;;;31.23;18.00;;;;;;;;;;5008734;28;20037;-75
2022/11/16 03:05:33;;;;;;;35.33;19.35;;;;;;;;;;5001415;28;20069;-75
2022/11/16 03:08:23;;;;;;;32.78;18.75;;;;;;;;;;5021446;28;20041;-75
2022/11/16 03:13:48;;;;;;;33.50;18.30;;;;;;;;;;5022720;28;20036;-75
2022/11/16 03:16:45;;;;;;;36.25;19.10;;;;;;;;;;5006781;28;20025;-76
2022/11/16 03:19:24;;;;;;;38.90;19.15;;;;;;;;;;4992487;28;20072;-75
2022/11/16 03:22:08;;;;;;;35.20;18.85;;;;;;;;;;5019615;28;20029;-76
2022/11/16 03:24:37;;;;;;;38.65;20.50;;;;;;;;;;5012476;28;20129;-75
2022/11/16 03:27:31;;;;;;;34.83;19.20;;;;;;;;;;5006655;28;20022;-75
2022/11/16 03:30:21;;;;;;;33.33;18.55;;;;;;;;;;5006574;28;20510;-76
2022/11/16 03:33:01;;;;;;;33.97;19.27;;;;;;;;;;5003305;28;20038;-76
2022/11/16 03:35:40;;;;;;;35.20;18.88;;;;;;;;;;5003617;28;20037;-76
2022/11/16 03:38:09;;;;;;;37.85;19.20;;;;;;;;;;5008533;28;20033;-76
2022/11/16 03:40:39;;;;;;;35.35;18.63;;;;;;;;;;4996508;28;20030;-77
2022/11/16 03:43:07;;;;;;;46.53;20.98;;;;;;;;;;4986570;28;20053;-76
2022/11/16 03:45:34;;;;;;;47.67;20.83;;;;;;;;;;5012520;28;20424;-77
2022/11/16 03:48:03;;;;;;;41.47;19.48;;;;;;;;;;4997145;28;20038;-76
2022/11/16 03:50:29;;;;;;;44.50;19.40;;;;;;;;;;5014917;28;20061;-76
2022/11/16 03:52:55;;;;;;;51.60;21.25;;;;;;;;;;4996746;28;20034;-77
2022/11/16 03:55:21;;;;;;;47.67;21.48;;;;;;;;;;5012770;28;20034;-77
2022/11/16 03:57:47;;;;;;;38.38;20.58;;;;;;;;;;5019224;28;20035;-76
2022/11/16 04:00:14;;;;;;;33.05;18.17;;;;;;;;;;4996380;28;20038;-76
2022/11/16 04:02:41;;;;;;;38.95;19.13;;;;;;;;;;5020790;28;20378;-75
2022/11/16 04:24:42;;;;;;;35.83;18.05;;;;;;;;;;5004254;28;20042;-75
2022/11/16 04:30:00;;;;;;;27.90;14.55;;;;;;;;;;5005553;28;20069;-76
2022/11/16 04:37:57;;;;;;;27.95;16.65;;;;;;;;;;5009538;28;20062;-76
2022/11/16 04:40:29;;;;;;;25.67;15.43;;;;;;;;;;5009525;28;20023;-76
2022/11/16 04:43:02;;;;;;;28.15;15.88;;;;;;;;;;5009664;28;20412;-75
2022/11/16 04:48:19;;;;;;;34.33;16.73;;;;;;;;;;5009356;28;20038;-76
2022/11/16 04:50:46;;;;;;;38.25;17.10;;;;;;;;;;4992907;28;20076;-75
2022/11/16 04:53:13;;;;;;;35.88;16.10;;;;;;;;;;5009167;28;20034;-76
2022/11/16 04:55:44;;;;;;;28.98;16.10;;;;;;;;;;5009273;28;20022;-76
2022/11/16 04:58:12;;;;;;;31.60;16.20;;;;;;;;;;4993021;28;20405;-76
2022/11/16 05:00:39;;;;;;;30.52;17.40;;;;;;;;;;4994493;28;20057;-76
2022/11/16 05:03:05;;;;;;;31.02;17.40;;;;;;;;;;4994123;28;20027;-76
2022/11/16 05:05:32;;;;;;;45.45;18.08;;;;;;;;;;5009816;28;20488;-75
2022/11/16 05:07:59;;;;;;;31.63;17.73;;;;;;;;;;5009491;28;20026;-76
2022/11/16 05:10:28;;;;;;;42.25;19.52;;;;;;;;;;4992506;28;20096;-76
2022/11/16 05:12:54;;;;;;;31.83;17.20;;;;;;;;;;4993177;28;20025;-75
2022/11/16 05:15:22;;;;;;;39.88;17.52;;;;;;;;;;5009176;28;20034;-76
2022/11/16 05:17:49;;;;;;;33.00;16.95;;;;;;;;;;4992912;28;20035;-75
2022/11/16 05:23:04;;;;;;;38.13;16.52;;;;;;;;;;5008945;28;20514;-75
2022/11/16 05:25:34;;;;;;;30.70;15.73;;;;;;;;;;4976786;28;20054;-75
2022/11/16 05:28:01;;;;;;;26.35;14.60;;;;;;;;;;5009063;28;20034;-75
2022/11/16 05:30:29;;;;;;;34.80;17.60;;;;;;;;;;4993056;28;20026;-75
2022/11/16 05:32:58;;;;;;;34.92;15.60;;;;;;;;;;5009070;28;20072;-76
2022/11/16 05:35:24;;;;;;;27.13;14.10;;;;;;;;;;4993004;28;20041;-76
2022/11/16 05:37:50;;;;;;;28.08;15.73;;;;;;;;;;5008932;28;20038;-76
2022/11/16 05:40:16;;;;;;;26.92;14.75;;;;;;;;;;5008745;28;20042;-76
2022/11/16 05:42:56;;;;;;;26.10;13.98;;;;;;;;;;5008740;28;20124;-74
2022/11/16 05:45:23;;;;;;;33.13;17.13;;;;;;;;;;4992250;28;20038;-75
2022/11/16 05:47:49;;;;;;;31.52;16.00;;;;;;;;;;4976131;28;20395;-76
2022/11/16 05:50:16;;;;;;;30.40;16.15;;;;;;;;;;4992042;28;20121;-75
2022/11/16 05:52:45;;;;;;;32.65;15.38;;;;;;;;;;5012694;28;20033;-76
2022/11/16 05:55:11;;;;;;;27.10;13.80;;;;;;;;;;5013134;28;20029;-75
2022/11/16 05:57:42;;;;;;;24.20;15.02;;;;;;;;;;4995966;28;20037;-76
2022/11/16 06:00:10;;;;;;;28.10;15.13;;;;;;;;;;5012956;28;20042;-75
2022/11/16 06:02:46;;;;;;;24.65;13.48;;;;;;;;;;5012046;28;20022;-75
2022/11/16 06:05:19;;;;;;;23.85;13.30;;;;;;;;;;5011844;28;20069;-77
2022/11/16 06:07:46;;;;;;;30.63;16.80;;;;;;;;;;5013177;28;20072;-75
2022/11/16 06:10:15;;;;;;;24.40;14.00;;;;;;;;;;5013235;28;20026;-76
2022/11/16 06:12:43;;;;;;;29.67;14.82;;;;;;;;;;4995633;28;20030;-76
2022/11/16 06:15:09;;;;;;;23.50;13.38;;;;;;;;;;5013919;28;20105;-76
2022/11/16 06:17:35;;;;;;;32.80;14.27;;;;;;;;;;5011925;28;20049;-76
2022/11/16 06:20:01;;;;;;;20.17;13.60;;;;;;;;;;5014268;28;20038;-75
2022/11/16 06:22:28;;;;;;;26.55;12.55;;;;;;;;;;5012533;28;20116;-75
2022/11/16 06:24:54;;;;;;;23.08;12.73;;;;;;;;;;5011290;28;20025;-74
2022/11/16 06:27:20;;;;;;;26.95;12.48;;;;;;;;;;5011264;28;20040;-77
2022/11/16 06:29:46;;;;;;;23.30;13.68;;;;;;;;;;5010035;28;20517;-76
2022/11/16 06:32:13;;;;;;;22.80;13.20;;;;;;;;;;5013024;28;20033;-75
2022/11/16 06:34:39;;;;;;;20.60;12.60;;;;;;;;;;5010595;28;20105;-75
2022/11/16 06:37:07;;;;;;;20.67;11.48;;;;;;;;;;5007910;28;20034;-75
2022/11/16 06:39:33;;;;;;;19.67;11.90;;;;;;;;;;5010353;28;20018;-76
2022/11/16 06:41:59;;;;;;;16.42;10.90;;;;;;;;;;5010505;28;20088;-76
2022/11/16 06:44:26;;;;;;;16.55;10.75;;;;;;;;;;5010577;28;20033;-76
2022/11/16 06:46:57;;;;;;;20.98;11.90;;;;;;;;;;5010989;28;20084;-76
2022/11/16 06:49:24;;;;;;;26.23;12.05;;;;;;;;;;5009475;28;20132;-75
2022/11/16 06:51:52;;;;;;;21.83;11.45;;;;;;;;;;5009120;28;20030;-71
2022/11/16 06:54:18;;;;;;;18.33;11.32;;;;;;;;;;5011262;28;20113;-71
2022/11/16 06:56:44;;;;;;;20.25;11.07;;;;;;;;;;4976665;28;20038;-71
2022/11/16 06:59:10;;;;;;;15.48;10.90;;;;;;;;;;5009104;28;20037;-72
2022/11/16 07:01:37;;;;;;;19.60;12.00;;;;;;;;;;5009625;28;20331;-72
2022/11/16 07:04:10;;;;;;;16.42;11.18;;;;;;;;;;5010045;28;20124;-72
2022/11/16 07:06:39;;;;;;;18.52;12.02;;;;;;;;;;5005307;28;20399;-74
2022/11/16 07:09:08;;;;;;;19.85;11.75;;;;;;;;;;4991825;28;20026;-72
2022/11/16 07:11:36;;;;;;;15.23;10.60;;;;;;;;;;5010791;28;20080;-72
2022/11/16 07:14:02;;;;;;;18.15;11.43;;;;;;;;;;5011064;28;20028;-73
2022/11/16 07:16:29;;;;;;;21.08;12.10;;;;;;;;;;5008188;28;20034;-71
2022/11/16 07:18:59;;;;;;;20.27;12.40;;;;;;;;;;4992075;28;20510;-72
2022/11/16 07:21:28;;;;;;;23.77;12.43;;;;;;;;;;5008065;28;20618;-72
2022/11/16 07:23:55;;;;;;;19.92;11.65;;;;;;;;;;5008678;28;20388;-71
2022/11/16 07:26:22;;;;;;;17.23;11.10;;;;;;;;;;5008868;28;20566;-72
2022/11/16 07:29:00;;;;;;;19.85;12.07;;;;;;;;;;5007433;28;20487;-73
2022/11/16 07:31:27;;;;;;;21.02;11.80;;;;;;;;;;4996135;28;20038;-73
2022/11/16 07:34:27;;;;;;;17.70;12.02;;;;;;;;;;4994053;28;20105;-73
2022/11/16 07:37:06;;;;;;;19.55;12.43;;;;;;;;;;4993916;28;20404;-75
2022/11/16 07:39:33;;;;;;;17.98;11.73;;;;;;;;;;5022034;28;20034;-74
2022/11/16 07:42:18;;;;;;;20.92;10.98;;;;;;;;;;5007168;28;20051;-72
2022/11/16 07:45:06;;;;;;;20.63;11.88;;;;;;;;;;4995282;28;20046;-73
2022/11/16 07:47:37;;;;;;;22.85;12.45;;;;;;;;;;4994414;28;20093;-72
2022/11/16 07:50:07;;;;;;;25.42;14.65;;;;;;;;;;4995059;28;20148;-73
2022/11/16 07:52:34;;;;;;;18.60;12.68;;;;;;;;;;4994031;28;20515;-73
2022/11/16 07:55:15;;;;;;;20.58;13.93;;;;;;;;;;4994217;28;20030;-72
2022/11/16 07:57:43;;;;;;;19.52;13.75;;;;;;;;;;4994300;28;20034;-71
2022/11/16 08:00:09;;;;;;;19.90;12.18;;;;;;;;;;4994210;28;20414;-71
2022/11/16 08:02:49;;;;;;;21.17;12.00;;;;;;;;;;5010729;28;20041;-72
2022/11/16 08:05:18;;;;;;;20.17;12.10;;;;;;;;;;5006625;28;20039;-72
2022/11/16 08:07:47;;;;;;;15.68;10.57;;;;;;;;;;4993428;28;20121;-71
2022/11/16 08:10:13;;;;;;;16.45;11.02;;;;;;;;;;4993642;28;20117;-72
2022/11/16 08:12:40;;;;;;;17.52;11.43;;;;;;;;;;4993666;28;20053;-72
2022/11/16 08:15:06;;;;;;;20.08;11.50;;;;;;;;;;4993869;28;20030;-73
2022/11/16 08:17:32;;;;;;;18.33;11.38;;;;;;;;;;4993513;28;20382;-71
2022/11/16 08:19:58;;;;;;;17.50;11.10;;;;;;;;;;4993352;28;20069;-71
2022/11/16 08:22:24;;;;;;;16.67;11.18;;;;;;;;;;4994652;28;20038;-74
2022/11/16 08:24:51;;;;;;;21.45;11.95;;;;;;;;;;4978086;28;20137;-76
2022/11/16 08:27:17;;;;;;;18.58;10.77;;;;;;;;;;4994092;28;20431;-73
2022/11/16 08:29:48;;;;;;;19.23;12.23;;;;;;;;;;5010160;28;20038;-72
2022/11/16 08:32:14;;;;;;;24.13;12.13;;;;;;;;;;4993004;28;20084;-73
2022/11/16 08:34:42;;;;;;;17.42;11.65;;;;;;;;;;4993435;28;20049;-72
2022/11/16 08:37:08;;;;;;;20.77;12.40;;;;;;;;;;5009669;28;20137;-72
2022/11/16 08:39:41;;;;;;;17.88;11.27;;;;;;;;;;5009944;28;20045;-71
2022/11/16 08:42:08;;;;;;;19.35;12.02;;;;;;;;;;5008883;28;20061;-72
2022/11/16 08:44:34;;;;;;;18.83;11.38;;;;;;;;;;5011463;28;20021;-72
2022/11/16 08:47:06;;;;;;;18.70;11.50;;;;;;;;;;5029435;28;20026;-72
2022/11/16 08:49:39;;;;;;;18.00;12.30;;;;;;;;;;4994303;28;20077;-74
2022/11/16 08:52:06;;;;;;;18.70;11.25;;;;;;;;;;5009935;28;20029;-71
2022/11/16 08:54:33;;;;;;;19.05;11.88;;;;;;;;;;5012581;28;20479;-74
2022/11/16 08:56:59;;;;;;;18.63;11.32;;;;;;;;;;5012674;28;20032;-72
2022/11/16 08:59:27;;;;;;;18.27;12.82;;;;;;;;;;5011726;28;20037;-71
2022/11/16 09:01:56;;;;;;;19.90;11.80;;;;;;;;;;4996112;28;20369;-72
2022/11/16 09:04:23;;;;;;;25.52;12.68;;;;;;;;;;5010471;28;20033;-72
2022/11/16 09:06:51;;;;;;;19.45;12.38;;;;;;;;;;5010970;28;20033;-72
2022/11/16 09:09:17;;;;;;;17.90;12.35;;;;;;;;;;5012765;28;20038;-71
2022/11/16 09:11:43;;;;;;;19.08;11.50;;;;;;;;;;5012362;28;20030;-71
2022/11/16 09:14:09;;;;;;;20.85;13.18;;;;;;;;;;5010842;28;20029;-72
2022/11/16 09:16:36;;;;;;;20.75;12.15;;;;;;;;;;5008126;28;20396;-73
2022/11/16 09:19:03;;;;;;;21.80;12.82;;;;;;;;;;5012440;28;20048;-72
2022/11/16 09:21:29;;;;;;;20.10;13.20;;;;;;;;;;5010593;28;20108;-71
2022/11/16 09:23:57;;;;;;;19.20;12.80;;;;;;;;;;5010703;28;20033;-72
2022/11/16 09:26:25;;;;;;;20.98;12.98;;;;;;;;;;4995402;28;20088;-72
2022/11/16 09:28:59;;;;;;;19.90;12.98;;;;;;;;;;5010828;28;20024;-72
2022/11/16 09:31:27;;;;;;;18.60;12.60;;;;;;;;;;5012884;28;20057;-73
2022/11/16 09:33:57;;;;;;;20.83;13.13;;;;;;;;;;5012871;28;20018;-72
2022/11/16 09:36:24;;;;;;;28.38;13.18;;;;;;;;;;5012654;28;20447;-73
2022/11/16 09:38:53;;;;;;;23.08;13.95;;;;;;;;;;5011835;28;20022;-72
2022/11/16 09:41:44;;;;;;;20.00;12.73;;;;;;;;;;5009581;28;20575;-72
2022/11/16 09:44:30;;;;;;;21.27;13.13;;;;;;;;;;5012159;28;20106;-72
2022/11/16 09:46:57;;;;;;;20.25;13.57;;;;;;;;;;5025074;28;20033;-72
2022/11/16 09:49:39;;;;;;;20.95;13.35;;;;;;;;;;5011018;28;20036;-73
2022/11/16 09:52:14;;;;;;;22.45;13.00;;;;;;;;;;5011103;28;20022;-73
2022/11/16 09:54:42;;;;;;;23.05;14.55;;;;;;;;;;5009453;28;20030;-73
2022/11/16 09:57:14;;;;;;;23.17;14.30;;;;;;;;;;5012220;28;20107;-71
2022/11/16 09:59:43;;;;;;;25.25;14.15;;;;;;;;;;5010457;28;20057;-71
2022/11/16 10:02:17;;;;;;;21.17;13.82;;;;;;;;;;5011673;28;20074;-72
2022/11/16 10:05:01;;;;;;;;;;;;;;;;;;5012133;28;20034;-72
2022/11/16 10:07:40;;;;;;;24.25;14.68;;;;;;;;;;4998549;28;20005;-72
2022/11/16 10:10:37;;;;;;;23.83;13.50;;;;;;;;;;4991634;28;20066;-73
2022/11/16 10:13:10;;;;;;;25.02;14.00;;;;;;;;;;4983519;28;20038;-74
2022/11/16 10:15:49;;;;;;;23.17;13.80;;;;;;;;;;4989951;28;20038;-71
2022/11/16 10:18:33;;;;;;;25.48;13.95;;;;;;;;;;4991555;28;20030;-72
2022/11/16 10:21:29;;;;;;;19.13;12.85;;;;;;;;;;4969623;28;20136;-72
2022/11/16 10:24:23;;;;;;;21.73;13.77;;;;;;;;;;4952731;29;20198;-72
2022/11/16 10:26:58;;;;;;;19.73;13.30;;;;;;;;;;4953055;28;20031;-75
2022/11/16 10:30:08;;;;;;;20.83;14.13;;;;;;;;;;4951445;29;20035;-73
2022/11/16 10:32:48;;;;;;;23.58;14.13;;;;;;;;;;4952301;28;20043;-74
2022/11/16 10:35:26;;;;;;;25.02;15.02;;;;;;;;;;4956010;28;20045;-72
2022/11/16 10:37:53;;;;;;;20.80;13.60;;;;;;;;;;4960313;28;20039;-72
2022/11/16 10:40:20;;;;;;;24.50;13.90;;;;;;;;;;4952122;28;20035;-71
2022/11/16 10:42:57;;;;;;;25.17;14.00;;;;;;;;;;4952114;28;20063;-72
2022/11/16 10:45:35;;;;;;;23.77;13.63;;;;;;;;;;4966262;28;20476;-72
2022/11/16 10:48:35;;;;;;;20.13;13.80;;;;;;;;;;4953148;28;20038;-74
2022/11/16 10:51:04;;;;;;;18.58;12.77;;;;;;;;;;4952499;28;20478;-72
2022/11/16 10:53:36;;;;;;;19.15;12.73;;;;;;;;;;4984465;28;20037;-72
2022/11/16 10:56:18;;;;;;;20.17;12.10;;;;;;;;;;4971484;28;20035;-72
2022/11/16 10:59:09;;;;;;;18.17;11.60;;;;;;;;;;4969318;28;20485;-71
2022/11/16 11:01:39;;;;;;;21.65;12.30;;;;;;;;;;4970877;28;20046;-73
2022/11/16 11:04:24;;;;;;;19.48;12.63;;;;;;;;;;4971418;28;20037;-71
2022/11/16 11:06:58;;;;;;;22.27;12.35;;;;;;;;;;4970096;28;20034;-73
2022/11/16 11:09:40;;;;;;;25.40;13.10;;;;;;;;;;4968485;28;20038;-74
2022/11/16 11:15:14;;;;;;;18.83;12.55;;;;;;;;;;4969999;28;20366;-73
2022/11/16 11:17:43;;;;;;;23.65;12.90;;;;;;;;;;4975826;28;20038;-73
2022/11/16 11:20:23;;;;;;;17.73;12.18;;;;;;;;;;5001203;28;20515;-71
2022/11/16 11:22:56;;;;;;;17.50;10.95;;;;;;;;;;5011599;28;20091;-70
2022/11/16 11:25:31;;;;;;;;;;;;;;;;;;5011786;28;20108;-72
2022/11/16 11:28:18;;;;;;;14.25;9.75;;;;;;;;;;5014928;28;19913;-72
2022/11/16 11:31:21;;;;;;;15.30;10.00;;;;;;;;;;5028902;28;20065;-70
2022/11/16 11:33:58;;;;;;;15.85;9.65;;;;;;;;;;5011682;28;20026;-71
2022/11/16 11:36:31;;;;;;;15.55;9.40;;;;;;;;;;4996704;28;20129;-70
2022/11/16 11:39:05;;;;;;;12.57;8.52;;;;;;;;;;4997895;28;20447;-71
2022/11/16 11:41:43;;;;;;;15.75;9.10;;;;;;;;;;4995649;28;20035;-71
2022/11/16 11:44:12;;;;;;;12.07;8.45;;;;;;;;;;4995353;28;20030;-72
2022/11/16 11:46:43;;;;;;;14.30;8.38;;;;;;;;;;5005773;28;20037;-72
2022/11/16 11:49:21;;;;;;;17.88;9.77;;;;;;;;;;5014734;28;20038;-70
2022/11/16 11:51:48;;;;;;;22.83;11.55;;;;;;;;;;5014569;28;20120;-73
2022/11/16 11:54:39;;;;;;;16.48;9.98;;;;;;;;;;5014863;28;20022;-72
2022/11/16 11:57:11;;;;;;;11.15;7.80;;;;;;;;;;5014037;28;20100;-71
2022/11/16 11:59:37;;;;;;;11.25;7.15;;;;;;;;;;5015137;28;20490;-71
2022/11/16 12:02:31;;;;;;;14.57;8.25;;;;;;;;;;5015246;28;20053;-72
2022/11/16 12:05:07;;;;;;;16.05;8.80;;;;;;;;;;5006663;28;20077;-72
2022/11/16 12:07:33;;;;;;;11.73;8.73;;;;;;;;;;5003856;28;20464;-73
2022/11/16 12:10:17;;;;;;;10.23;6.90;;;;;;;;;;4994832;28;20061;-73
2022/11/16 12:13:06;;;;;;;8.90;6.65;;;;;;;;;;4995174;28;20109;-73
2022/11/16 12:15:38;;;;;;;12.10;6.60;;;;;;;;;;4995568;28;20038;-73
2022/11/16 12:18:46;;;;;;;9.30;6.70;;;;;;;;;;5008118;28;20073;-72
2022/11/16 12:21:19;;;;;;;13.10;6.60;;;;;;;;;;4955078;29;20102;-72
2022/11/16 12:23:48;;;;;;;14.07;6.28;;;;;;;;;;4955702;28;20043;-73
2022/11/16 12:26:50;;;;;;;12.20;6.88;;;;;;;;;;4963123;28;20031;-73
2022/11/16 12:29:31;;;;;;;11.45;7.03;;;;;;;;;;4975042;28;20093;-74
2022/11/16 12:32:26;;;;;;;13.00;6.63;;;;;;;;;;4975767;28;20037;-71
2022/11/16 12:35:23;;;;;;;13.85;7.22;;;;;;;;;;4970040;28;20436;-73
2022/11/16 12:38:08;;;;;;;11.05;6.05;;;;;;;;;;4974124;28;20030;-74
2022/11/16 12:40:45;;;;;;;10.02;6.13;;;;;;;;;;4972391;28;20041;-74
2022/11/16 12:43:15;;;;;;;10.07;5.28;;;;;;;;;;4971176;28;20441;-72
2022/11/16 12:45:53;;;;;;;14.18;6.40;;;;;;;;;;4972256;28;20536;-71
2022/11/16 12:48:43;;;;;;;11.50;5.95;;;;;;;;;;4967770;28;20062;-71
2022/11/16 12:51:21;;;;;;;10.35;6.05;;;;;;;;;;4960238;28;20496;-71
2022/11/16 12:54:05;;;;;;;10.40;5.20;;;;;;;;;;4960503;28;20041;-71
2022/11/16 12:56:46;;;;;;;9.00;4.50;;;;;;;;;;4969188;28;20035;-72
2022/11/16 12:59:35;;;;;;;7.53;4.70;;;;;;;;;;4965268;28;20061;-71
2022/11/16 13:02:18;;;;;;;9.32;4.95;;;;;;;;;;4972370;28;20089;-73
2022/11/16 13:05:12;;;;;;;12.63;5.40;;;;;;;;;;4972739;28;20038;-71
2022/11/16 13:07:44;;;;;;;11.40;5.65;;;;;;;;;;4972312;28;20504;-71
2022/11/16 13:10:28;;;;;;;19.02;7.13;;;;;;;;;;4971583;28;20060;-71
2022/11/16 13:12:59;;;;;;;12.52;5.70;;;;;;;;;;4982381;28;20030;-71
2022/11/16 13:15:33;;;;;;;14.40;5.68;;;;;;;;;;4980386;28;20042;-71
2022/11/16 13:18:02;;;;;;;9.43;5.30;;;;;;;;;;4979158;28;20077;-72
2022/11/16 13:20:49;;;;;;;9.75;5.20;;;;;;;;;;5001426;28;20088;-71
2022/11/16 13:23:30;;;;;;;8.45;5.00;;;;;;;;;;5006444;28;20488;-71
2022/11/16 13:26:14;;;;;;;7.25;4.57;;;;;;;;;;5003121;28;20038;-72
2022/11/16 13:28:50;;;;;;;7.70;4.63;;;;;;;;;;5011437;28;20062;-70
2022/11/16 13:31:48;;;;;;;11.15;5.28;;;;;;;;;;5008191;28;20126;-71
2022/11/16 13:34:23;;;;;;;13.70;6.55;;;;;;;;;;5021990;28;20160;-71
2022/11/16 13:36:49;;;;;;;7.32;4.85;;;;;;;;;;5010780;28;20156;-72
2022/11/16 13:39:40;;;;;;;8.57;4.97;;;;;;;;;;5011029;28;20472;-71
2022/11/16 13:42:11;;;;;;;11.07;5.47;;;;;;;;;;5008960;28;20901;-72
2022/11/16 13:44:38;;;;;;;9.23;5.68;;;;;;;;;;5008268;28;20180;-71
2022/11/16 13:47:16;;;;;;;8.38;5.65;;;;;;;;;;5008755;28;20117;-70
2022/11/16 13:50:00;;;;;;;9.52;5.45;;;;;;;;;;5008890;28;20058;-71
2022/11/16 13:52:46;;;;;;;11.77;5.60;;;;;;;;;;5005591;28;20060;-71
2022/11/16 13:55:43;;;;;;;12.02;6.60;;;;;;;;;;5005169;28;20876;-70
2022/11/16 13:58:18;;;;;;;9.80;5.15;;;;;;;;;;5002968;28;20463;-71
2022/11/16 14:00:59;;;;;;;12.50;6.75;;;;;;;;;;5006560;28;20103;-71
2022/11/16 14:03:31;;;;;;;9.75;6.75;;;;;;;;;;5022130;28;20157;-70
2022/11/16 14:05:57;;;;;;;14.27;6.70;;;;;;;;;;5007004;28;20037;-70
2022/11/16 14:08:23;;;;;;;11.30;6.03;;;;;;;;;;5007211;28;20394;-70
2022/11/16 14:10:49;;;;;;;15.60;6.25;;;;;;;;;;5006266;28;20045;-71
2022/11/16 14:13:41;;;;;;;9.68;5.72;;;;;;;;;;5007419;28;20050;-72
2022/11/16 14:16:19;;;;;;;10.15;5.60;;;;;;;;;;5007752;28;20120;-70
2022/11/16 14:18:50;;;;;;;14.07;5.75;;;;;;;;;;5006602;28;20050;-70
2022/11/16 14:21:20;;;;;;;9.32;5.88;;;;;;;;;;5007847;28;20063;-72
2022/11/16 14:23:52;;;;;;;11.25;5.75;;;;;;;;;;5007370;28;20069;-70
2022/11/16 14:26:42;;;;;;;13.80;6.75;;;;;;;;;;5007183;28;20034;-72
2022/11/16 14:29:10;;;;;;;9.23;6.07;;;;;;;;;;4991279;28;20038;-72
2022/11/16 14:31:48;;;;;;;10.23;6.22;;;;;;;;;;5007624;28;20096;-71
2022/11/16 14:34:40;;;;;;;9.85;5.38;;;;;;;;;;5005419;28;20121;-72
2022/11/16 14:37:23;;;;;;;9.60;6.03;;;;;;;;;;5005160;28;20029;-71
2022/11/16 14:40:14;;;;;;;9.95;6.28;;;;;;;;;;5003950;28;20073;-70
2022/11/16 14:43:05;;;;;;;11.40;6.47;;;;;;;;;;5005217;28;20514;-70
2022/11/16 14:45:34;;;;;;;11.45;6.25;;;;;;;;;;5010151;28;20037;-71
2022/11/16 14:48:21;;;;;;;9.35;6.50;;;;;;;;;;5009936;28;20036;-72
2022/11/16 14:51:03;;;;;;;18.27;7.20;;;;;;;;;;5010340;28;20030;-72
2022/11/16 14:53:31;;;;;;;15.50;8.43;;;;;;;;;;5010107;28;20034;-72
2022/11/16 14:56:14;;;;;;;19.77;8.75;;;;;;;;;;5010372;28;20088;-71
2022/11/16 14:58:51;;;;;;;12.35;8.13;;;;;;;;;;5007148;28;20444;-71
2022/11/16 15:01:20;;;;;;;14.23;8.82;;;;;;;;;;5011167;28;20041;-71
2022/11/16 15:04:05;;;;;;;12.75;7.70;;;;;;;;;;5009617;28;20044;-71
2022/11/16 15:07:01;;;;;;;13.43;7.88;;;;;;;;;;5007422;28;20730;-71
2022/11/16 15:09:31;;;;;;;13.63;7.25;;;;;;;;;;5006401;28;20100;-72
2022/11/16 15:14:51;;;;;;;14.70;7.72;;;;;;;;;;5009454;28;20041;-73
2022/11/16 15:17:21;;;;;;;15.30;8.50;;;;;;;;;;5010525;28;20038;-73
2022/11/16 15:19:58;;;;;;;13.82;7.70;;;;;;;;;;5007066;28;20038;-71
2022/11/16 15:22:27;;;;;;;15.02;8.38;;;;;;;;;;5009506;28;20072;-72
2022/11/16 15:24:56;;;;;;;15.00;8.00;;;;;;;;;;5007303;28;20492;-73
2022/11/16 15:27:36;;;;;;;24.45;10.43;;;;;;;;;;5011167;28;20099;-71
2022/11/16 15:30:19;;;;;;;17.98;9.27;;;;;;;;;;5008147;28;20034;-72
2022/11/16 15:32:46;;;;;;;12.00;7.13;;;;;;;;;;5009709;28;20042;-71
2022/11/16 15:35:23;;;;;;;15.43;9.88;;;;;;;;;;5010277;28;20032;-72
2022/11/16 15:38:16;;;;;;;20.65;10.13;;;;;;;;;;5008988;28;20065;-71
2022/11/16 15:40:47;;;;;;;25.35;9.55;;;;;;;;;;5007239;28;20065;-71
2022/11/16 15:43:14;;;;;;;17.92;10.18;;;;;;;;;;5005030;28;20042;-72